sensor_id;sensor_type;location;lat;lon;timestamp;P1;durP1;ratioP1;P2;durP2;ratioP2
74328;SDS011;62745;51.060;13.786;2023-10-19T00:00:30;7.97;;;3.28;;
74328;SDS011;62745;51.060;13.786;2023-10-19T00:02:58;7.72;;;3.63;;
74328;SDS011;62745;51.060;13.786;2023-10-19T00:05:27;9.65;;;4.15;;
74328;SDS011;62745;51.060;13.786;2023-10-19T00:07:54;8.73;;;3.60;;
74328;SDS011;62745;51.060;13.786;2023-10-19T00:10:22;9.15;;;4.10;;
74328;SDS011;62745;51.060;13.786;2023-10-19T00:12:47;8.55;;;3.55;;
74328;SDS011;62745;51.060;13.786;2023-10-19T00:15:22;7.10;;;3.65;;
74328;SDS011;62745;51.060;13.786;2023-10-19T00:17:51;6.70;;;3.58;;
74328;SDS011;62745;51.060;13.786;2023-10-19T00:20:18;8.57;;;3.38;;
74328;SDS011;62745;51.060;13.786;2023-10-19T00:23:02;8.38;;;3.47;;
74328;SDS011;62745;51.060;13.786;2023-10-19T00:25:30;7.43;;;3.35;;
74328;SDS011;62745;51.060;13.786;2023-10-19T00:27:58;7.10;;;3.00;;
74328;SDS011;62745;51.060;13.786;2023-10-19T00:30:25;8.73;;;3.30;;
74328;SDS011;62745;51.060;13.786;2023-10-19T00:32:56;7.72;;;3.40;;
74328;SDS011;62745;51.060;13.786;2023-10-19T00:35:21;9.73;;;3.80;;
74328;SDS011;62745;51.060;13.786;2023-10-19T00:37:55;8.90;;;3.42;;
74328;SDS011;62745;51.060;13.786;2023-10-19T00:40:37;8.65;;;3.75;;
74328;SDS011;62745;51.060;13.786;2023-10-19T00:43:05;8.23;;;3.60;;
74328;SDS011;62745;51.060;13.786;2023-10-19T00:45:35;7.45;;;3.28;;
74328;SDS011;62745;51.060;13.786;2023-10-19T00:48:05;9.90;;;3.80;;
74328;SDS011;62745;51.060;13.786;2023-10-19T00:50:33;8.15;;;3.58;;
74328;SDS011;62745;51.060;13.786;2023-10-19T00:52:58;9.52;;;3.90;;
74328;SDS011;62745;51.060;13.786;2023-10-19T00:55:24;8.50;;;3.40;;
74328;SDS011;62745;51.060;13.786;2023-10-19T00:57:52;8.90;;;4.10;;
74328;SDS011;62745;51.060;13.786;2023-10-19T01:00:19;9.18;;;3.60;;
74328;SDS011;62745;51.060;13.786;2023-10-19T01:06:31;9.38;;;3.40;;
74328;SDS011;62745;51.060;13.786;2023-10-19T01:11:23;10.77;;;3.87;;
74328;SDS011;62745;51.060;13.786;2023-10-19T01:13:53;8.68;;;3.60;;
74328;SDS011;62745;51.060;13.786;2023-10-19T01:16:19;8.63;;;3.78;;
74328;SDS011;62745;51.060;13.786;2023-10-19T01:18:50;8.98;;;4.20;;
74328;SDS011;62745;51.060;13.786;2023-10-19T01:21:24;7.80;;;3.80;;
74328;SDS011;62745;51.060;13.786;2023-10-19T01:24:05;9.50;;;3.70;;
74328;SDS011;62745;51.060;13.786;2023-10-19T01:26:32;6.22;;;3.60;;
74328;SDS011;62745;51.060;13.786;2023-10-19T01:29:02;7.95;;;3.47;;
74328;SDS011;62745;51.060;13.786;2023-10-19T01:31:34;9.52;;;4.10;;
74328;SDS011;62745;51.060;13.786;2023-10-19T01:34:04;8.70;;;4.10;;
74328;SDS011;62745;51.060;13.786;2023-10-19T01:36:34;7.47;;;3.78;;
74328;SDS011;62745;51.060;13.786;2023-10-19T01:39:19;8.25;;;4.00;;
74328;SDS011;62745;51.060;13.786;2023-10-19T01:41:45;10.13;;;4.13;;
74328;SDS011;62745;51.060;13.786;2023-10-19T01:44:10;8.30;;;4.13;;
74328;SDS011;62745;51.060;13.786;2023-10-19T01:46:41;6.72;;;3.63;;
74328;SDS011;62745;51.060;13.786;2023-10-19T01:49:08;9.02;;;3.85;;
74328;SDS011;62745;51.060;13.786;2023-10-19T01:51:34;7.40;;;3.88;;
74328;SDS011;62745;51.060;13.786;2023-10-19T01:54:03;6.63;;;3.55;;
74328;SDS011;62745;51.060;13.786;2023-10-19T01:56:29;7.70;;;3.72;;
74328;SDS011;62745;51.060;13.786;2023-10-19T01:58:55;9.63;;;4.10;;
74328;SDS011;62745;51.060;13.786;2023-10-19T02:01:22;7.40;;;3.70;;
74328;SDS011;62745;51.060;13.786;2023-10-19T02:04:03;7.32;;;3.88;;
74328;SDS011;62745;51.060;13.786;2023-10-19T02:06:31;8.90;;;3.78;;
74328;SDS011;62745;51.060;13.786;2023-10-19T02:11:46;8.05;;;4.35;;
74328;SDS011;62745;51.060;13.786;2023-10-19T02:14:12;8.48;;;4.13;;
74328;SDS011;62745;51.060;13.786;2023-10-19T02:16:40;7.22;;;4.13;;
74328;SDS011;62745;51.060;13.786;2023-10-19T02:19:06;7.75;;;4.25;;
74328;SDS011;62745;51.060;13.786;2023-10-19T02:21:31;9.00;;;5.13;;
74328;SDS011;62745;51.060;13.786;2023-10-19T02:23:58;12.60;;;4.25;;
74328;SDS011;62745;51.060;13.786;2023-10-19T02:26:23;10.93;;;4.63;;
74328;SDS011;62745;51.060;13.786;2023-10-19T02:28:51;9.60;;;4.68;;
74328;SDS011;62745;51.060;13.786;2023-10-19T02:31:17;9.18;;;4.35;;
74328;SDS011;62745;51.060;13.786;2023-10-19T02:33:44;7.70;;;3.92;;
74328;SDS011;62745;51.060;13.786;2023-10-19T02:36:29;10.80;;;4.18;;
74328;SDS011;62745;51.060;13.786;2023-10-19T02:39:06;9.57;;;4.85;;
74328;SDS011;62745;51.060;13.786;2023-10-19T02:41:39;10.85;;;4.82;;
74328;SDS011;62745;51.060;13.786;2023-10-19T02:44:10;9.00;;;4.70;;
74328;SDS011;62745;51.060;13.786;2023-10-19T02:46:48;10.48;;;4.70;;
74328;SDS011;62745;51.060;13.786;2023-10-19T02:49:16;8.48;;;4.95;;
74328;SDS011;62745;51.060;13.786;2023-10-19T02:51:48;8.50;;;4.30;;
74328;SDS011;62745;51.060;13.786;2023-10-19T02:54:18;7.55;;;4.45;;
74328;SDS011;62745;51.060;13.786;2023-10-19T02:56:48;9.43;;;4.85;;
74328;SDS011;62745;51.060;13.786;2023-10-19T02:59:18;9.48;;;4.35;;
74328;SDS011;62745;51.060;13.786;2023-10-19T03:01:47;7.90;;;4.40;;
74328;SDS011;62745;51.060;13.786;2023-10-19T03:04:17;8.65;;;4.25;;
74328;SDS011;62745;51.060;13.786;2023-10-19T03:06:43;9.40;;;4.75;;
74328;SDS011;62745;51.060;13.786;2023-10-19T03:09:09;9.10;;;4.63;;
74328;SDS011;62745;51.060;13.786;2023-10-19T03:11:47;9.20;;;4.85;;
74328;SDS011;62745;51.060;13.786;2023-10-19T03:16:43;10.32;;;4.63;;
74328;SDS011;62745;51.060;13.786;2023-10-19T03:19:08;11.47;;;5.50;;
74328;SDS011;62745;51.060;13.786;2023-10-19T03:21:33;10.45;;;5.15;;
74328;SDS011;62745;51.060;13.786;2023-10-19T03:24:10;12.50;;;6.05;;
74328;SDS011;62745;51.060;13.786;2023-10-19T03:26:38;10.00;;;5.53;;
74328;SDS011;62745;51.060;13.786;2023-10-19T03:31:37;12.43;;;5.28;;
74328;SDS011;62745;51.060;13.786;2023-10-19T03:34:08;11.73;;;5.57;;
74328;SDS011;62745;51.060;13.786;2023-10-19T03:36:34;10.73;;;5.40;;
74328;SDS011;62745;51.060;13.786;2023-10-19T03:39:00;9.77;;;5.78;;
74328;SDS011;62745;51.060;13.786;2023-10-19T03:41:36;11.20;;;5.68;;
74328;SDS011;62745;51.060;13.786;2023-10-19T03:44:02;10.55;;;5.10;;
74328;SDS011;62745;51.060;13.786;2023-10-19T03:46:28;10.55;;;5.65;;
74328;SDS011;62745;51.060;13.786;2023-10-19T03:49:00;9.40;;;6.00;;
74328;SDS011;62745;51.060;13.786;2023-10-19T03:51:35;10.52;;;5.78;;
74328;SDS011;62745;51.060;13.786;2023-10-19T03:54:23;11.20;;;6.15;;
74328;SDS011;62745;51.060;13.786;2023-10-19T03:56:50;11.43;;;5.63;;
74328;SDS011;62745;51.060;13.786;2023-10-19T03:59:16;11.95;;;6.43;;
74328;SDS011;62745;51.060;13.786;2023-10-19T04:01:42;11.27;;;5.80;;
74328;SDS011;62745;51.060;13.786;2023-10-19T04:04:08;13.50;;;6.70;;
74328;SDS011;62745;51.060;13.786;2023-10-19T04:06:34;12.80;;;6.22;;
74328;SDS011;62745;51.060;13.786;2023-10-19T04:08:59;10.90;;;6.73;;
74328;SDS011;62745;51.060;13.786;2023-10-19T04:11:24;14.07;;;7.40;;
74328;SDS011;62745;51.060;13.786;2023-10-19T04:13:57;10.77;;;6.53;;
74328;SDS011;62745;51.060;13.786;2023-10-19T04:16:24;10.18;;;6.10;;
74328;SDS011;62745;51.060;13.786;2023-10-19T04:18:49;11.80;;;6.53;;
74328;SDS011;62745;51.060;13.786;2023-10-19T04:21:14;12.50;;;6.23;;
74328;SDS011;62745;51.060;13.786;2023-10-19T04:23:40;12.82;;;6.32;;
74328;SDS011;62745;51.060;13.786;2023-10-19T04:26:05;15.45;;;7.25;;
74328;SDS011;62745;51.060;13.786;2023-10-19T04:28:36;12.75;;;7.72;;
74328;SDS011;62745;51.060;13.786;2023-10-19T04:31:14;12.13;;;6.57;;
74328;SDS011;62745;51.060;13.786;2023-10-19T04:33:41;14.80;;;8.13;;
74328;SDS011;62745;51.060;13.786;2023-10-19T04:36:13;17.35;;;8.05;;
74328;SDS011;62745;51.060;13.786;2023-10-19T04:38:39;18.50;;;9.43;;
74328;SDS011;62745;51.060;13.786;2023-10-19T04:41:08;16.85;;;9.57;;
74328;SDS011;62745;51.060;13.786;2023-10-19T04:43:35;18.52;;;9.52;;
74328;SDS011;62745;51.060;13.786;2023-10-19T04:46:08;16.88;;;8.85;;
74328;SDS011;62745;51.060;13.786;2023-10-19T04:48:38;21.50;;;10.48;;
74328;SDS011;62745;51.060;13.786;2023-10-19T04:51:05;19.02;;;9.82;;
74328;SDS011;62745;51.060;13.786;2023-10-19T04:53:32;18.15;;;10.40;;
74328;SDS011;62745;51.060;13.786;2023-10-19T04:55:57;19.45;;;9.85;;
74328;SDS011;62745;51.060;13.786;2023-10-19T04:58:25;20.25;;;11.50;;
74328;SDS011;62745;51.060;13.786;2023-10-19T05:00:50;19.20;;;10.25;;
74328;SDS011;62745;51.060;13.786;2023-10-19T05:03:16;20.63;;;11.18;;
74328;SDS011;62745;51.060;13.786;2023-10-19T05:05:44;20.63;;;10.93;;
74328;SDS011;62745;51.060;13.786;2023-10-19T05:08:09;20.10;;;10.35;;
74328;SDS011;62745;51.060;13.786;2023-10-19T05:10:35;22.63;;;12.43;;
74328;SDS011;62745;51.060;13.786;2023-10-19T05:13:00;18.75;;;11.38;;
74328;SDS011;62745;51.060;13.786;2023-10-19T05:15:25;32.83;;;13.00;;
74328;SDS011;62745;51.060;13.786;2023-10-19T05:17:51;26.13;;;13.13;;
74328;SDS011;62745;51.060;13.786;2023-10-19T05:20:16;27.83;;;11.25;;
74328;SDS011;62745;51.060;13.786;2023-10-19T05:22:41;22.70;;;11.63;;
74328;SDS011;62745;51.060;13.786;2023-10-19T05:25:07;31.47;;;12.70;;
74328;SDS011;62745;51.060;13.786;2023-10-19T05:27:33;27.10;;;13.32;;
74328;SDS011;62745;51.060;13.786;2023-10-19T05:29:58;17.50;;;10.43;;
74328;SDS011;62745;51.060;13.786;2023-10-19T05:32:25;19.30;;;9.85;;
74328;SDS011;62745;51.060;13.786;2023-10-19T05:34:50;36.22;;;14.80;;
74328;SDS011;62745;51.060;13.786;2023-10-19T05:37:16;36.00;;;12.70;;
74328;SDS011;62745;51.060;13.786;2023-10-19T05:39:42;17.05;;;10.30;;
74328;SDS011;62745;51.060;13.786;2023-10-19T05:42:09;20.80;;;11.07;;
74328;SDS011;62745;51.060;13.786;2023-10-19T05:44:34;18.35;;;10.88;;
74328;SDS011;62745;51.060;13.786;2023-10-19T05:47:00;26.83;;;11.48;;
74328;SDS011;62745;51.060;13.786;2023-10-19T05:49:25;29.58;;;11.90;;
74328;SDS011;62745;51.060;13.786;2023-10-19T05:51:50;17.83;;;9.77;;
74328;SDS011;62745;51.060;13.786;2023-10-19T05:54:16;18.05;;;10.45;;
74328;SDS011;62745;51.060;13.786;2023-10-19T05:56:42;18.40;;;10.77;;
74328;SDS011;62745;51.060;13.786;2023-10-19T05:59:07;19.38;;;10.88;;
74328;SDS011;62745;51.060;13.786;2023-10-19T06:01:34;21.73;;;11.55;;
74328;SDS011;62745;51.060;13.786;2023-10-19T06:04:00;20.77;;;11.02;;
74328;SDS011;62745;51.060;13.786;2023-10-19T06:06:26;20.23;;;10.85;;
74328;SDS011;62745;51.060;13.786;2023-10-19T06:08:51;19.63;;;11.20;;
74328;SDS011;62745;51.060;13.786;2023-10-19T06:11:18;18.98;;;11.38;;
74328;SDS011;62745;51.060;13.786;2023-10-19T06:13:44;18.95;;;10.75;;
74328;SDS011;62745;51.060;13.786;2023-10-19T06:16:09;15.75;;;10.18;;
74328;SDS011;62745;51.060;13.786;2023-10-19T06:18:35;19.87;;;11.37;;
74328;SDS011;62745;51.060;13.786;2023-10-19T06:21:00;20.37;;;10.50;;
74328;SDS011;62745;51.060;13.786;2023-10-19T06:23:25;19.13;;;11.65;;
74328;SDS011;62745;51.060;13.786;2023-10-19T06:25:50;21.45;;;11.43;;
74328;SDS011;62745;51.060;13.786;2023-10-19T06:28:19;21.80;;;12.88;;
74328;SDS011;62745;51.060;13.786;2023-10-19T06:30:44;25.80;;;13.00;;
74328;SDS011;62745;51.060;13.786;2023-10-19T06:33:10;24.58;;;12.80;;
74328;SDS011;62745;51.060;13.786;2023-10-19T06:35:36;22.40;;;11.93;;
74328;SDS011;62745;51.060;13.786;2023-10-19T06:38:02;21.35;;;12.30;;
74328;SDS011;62745;51.060;13.786;2023-10-19T06:40:33;19.75;;;11.90;;
74328;SDS011;62745;51.060;13.786;2023-10-19T06:42:59;21.05;;;12.13;;
74328;SDS011;62745;51.060;13.786;2023-10-19T06:45:27;19.75;;;11.52;;
74328;SDS011;62745;51.060;13.786;2023-10-19T06:47:54;18.23;;;11.80;;
74328;SDS011;62745;51.060;13.786;2023-10-19T06:50:20;22.33;;;12.65;;
74328;SDS011;62745;51.060;13.786;2023-10-19T06:52:47;19.83;;;11.77;;
74328;SDS011;62745;51.060;13.786;2023-10-19T06:55:13;19.48;;;11.80;;
74328;SDS011;62745;51.060;13.786;2023-10-19T06:57:41;20.48;;;11.55;;
74328;SDS011;62745;51.060;13.786;2023-10-19T07:00:13;19.92;;;11.57;;
74328;SDS011;62745;51.060;13.786;2023-10-19T07:02:52;20.13;;;11.50;;
74328;SDS011;62745;51.060;13.786;2023-10-19T07:05:20;22.45;;;12.63;;
74328;SDS011;62745;51.060;13.786;2023-10-19T07:07:47;18.10;;;10.43;;
74328;SDS011;62745;51.060;13.786;2023-10-19T07:10:15;19.80;;;11.95;;
74328;SDS011;62745;51.060;13.786;2023-10-19T07:12:42;23.13;;;12.93;;
74328;SDS011;62745;51.060;13.786;2023-10-19T07:15:08;21.85;;;12.90;;
74328;SDS011;62745;51.060;13.786;2023-10-19T07:17:39;23.48;;;12.38;;
74328;SDS011;62745;51.060;13.786;2023-10-19T07:20:08;19.77;;;11.48;;
74328;SDS011;62745;51.060;13.786;2023-10-19T07:22:46;21.83;;;11.88;;
74328;SDS011;62745;51.060;13.786;2023-10-19T07:25:12;21.67;;;12.20;;
74328;SDS011;62745;51.060;13.786;2023-10-19T07:27:38;20.13;;;11.73;;
74328;SDS011;62745;51.060;13.786;2023-10-19T07:30:04;22.63;;;11.87;;
74328;SDS011;62745;51.060;13.786;2023-10-19T07:32:34;21.05;;;11.98;;
74328;SDS011;62745;51.060;13.786;2023-10-19T07:34:59;20.30;;;10.70;;
74328;SDS011;62745;51.060;13.786;2023-10-19T07:37:24;22.47;;;12.40;;
74328;SDS011;62745;51.060;13.786;2023-10-19T07:39:50;18.83;;;10.53;;
74328;SDS011;62745;51.060;13.786;2023-10-19T07:42:17;22.60;;;11.32;;
74328;SDS011;62745;51.060;13.786;2023-10-19T07:44:42;18.40;;;11.32;;
74328;SDS011;62745;51.060;13.786;2023-10-19T07:47:08;19.13;;;11.88;;
74328;SDS011;62745;51.060;13.786;2023-10-19T07:49:35;20.10;;;11.70;;
74328;SDS011;62745;51.060;13.786;2023-10-19T07:52:03;18.67;;;11.55;;
74328;SDS011;62745;51.060;13.786;2023-10-19T07:54:31;18.63;;;10.80;;
74328;SDS011;62745;51.060;13.786;2023-10-19T07:56:57;19.55;;;11.43;;
74328;SDS011;62745;51.060;13.786;2023-10-19T07:59:23;19.10;;;11.17;;
74328;SDS011;62745;51.060;13.786;2023-10-19T08:01:48;19.27;;;11.87;;
74328;SDS011;62745;51.060;13.786;2023-10-19T08:04:13;18.70;;;11.33;;
74328;SDS011;62745;51.060;13.786;2023-10-19T08:06:38;18.30;;;11.07;;
74328;SDS011;62745;51.060;13.786;2023-10-19T08:09:04;18.97;;;11.70;;
74328;SDS011;62745;51.060;13.786;2023-10-19T08:11:30;17.70;;;10.63;;
74328;SDS011;62745;51.060;13.786;2023-10-19T08:13:56;22.55;;;12.18;;
74328;SDS011;62745;51.060;13.786;2023-10-19T08:16:21;20.05;;;11.85;;
74328;SDS011;62745;51.060;13.786;2023-10-19T08:18:47;20.02;;;11.80;;
74328;SDS011;62745;51.060;13.786;2023-10-19T08:21:13;21.80;;;12.77;;
74328;SDS011;62745;51.060;13.786;2023-10-19T08:23:39;19.13;;;10.70;;
74328;SDS011;62745;51.060;13.786;2023-10-19T08:26:05;18.98;;;12.13;;
74328;SDS011;62745;51.060;13.786;2023-10-19T08:28:31;17.98;;;10.23;;
74328;SDS011;62745;51.060;13.786;2023-10-19T08:30:57;17.90;;;10.45;;
74328;SDS011;62745;51.060;13.786;2023-10-19T08:33:25;19.23;;;11.18;;
74328;SDS011;62745;51.060;13.786;2023-10-19T08:35:54;18.08;;;11.35;;
74328;SDS011;62745;51.060;13.786;2023-10-19T08:38:24;17.58;;;10.55;;
74328;SDS011;62745;51.060;13.786;2023-10-19T08:40:50;18.55;;;10.13;;
74328;SDS011;62745;51.060;13.786;2023-10-19T08:43:16;18.85;;;10.27;;
74328;SDS011;62745;51.060;13.786;2023-10-19T08:48:11;17.10;;;9.93;;
74328;SDS011;62745;51.060;13.786;2023-10-19T08:50:37;17.25;;;9.60;;
74328;SDS011;62745;51.060;13.786;2023-10-19T08:53:06;16.30;;;10.18;;
74328;SDS011;62745;51.060;13.786;2023-10-19T08:55:39;17.50;;;9.45;;
74328;SDS011;62745;51.060;13.786;2023-10-19T08:58:04;14.65;;;9.40;;
74328;SDS011;62745;51.060;13.786;2023-10-19T09:00:42;16.75;;;9.77;;
74328;SDS011;62745;51.060;13.786;2023-10-19T09:03:09;16.50;;;9.85;;
74328;SDS011;62745;51.060;13.786;2023-10-19T09:05:38;16.33;;;9.60;;
74328;SDS011;62745;51.060;13.786;2023-10-19T09:08:05;16.52;;;9.43;;
74328;SDS011;62745;51.060;13.786;2023-10-19T09:10:31;15.52;;;8.73;;
74328;SDS011;62745;51.060;13.786;2023-10-19T09:13:00;12.75;;;8.18;;
74328;SDS011;62745;51.060;13.786;2023-10-19T09:15:33;14.30;;;8.68;;
74328;SDS011;62745;51.060;13.786;2023-10-19T09:18:11;12.70;;;8.50;;
74328;SDS011;62745;51.060;13.786;2023-10-19T09:20:41;13.77;;;8.93;;
74328;SDS011;62745;51.060;13.786;2023-10-19T09:23:17;12.80;;;8.05;;
74328;SDS011;62745;51.060;13.786;2023-10-19T09:25:44;11.88;;;7.57;;
74328;SDS011;62745;51.060;13.786;2023-10-19T09:28:09;13.77;;;8.20;;
74328;SDS011;62745;51.060;13.786;2023-10-19T09:30:38;13.60;;;8.38;;
74328;SDS011;62745;51.060;13.786;2023-10-19T09:33:04;12.27;;;8.00;;
74328;SDS011;62745;51.060;13.786;2023-10-19T09:35:32;14.10;;;7.65;;
74328;SDS011;62745;51.060;13.786;2023-10-19T09:37:59;14.40;;;7.72;;
74328;SDS011;62745;51.060;13.786;2023-10-19T09:40:25;12.00;;;7.35;;
74328;SDS011;62745;51.060;13.786;2023-10-19T09:42:53;11.35;;;6.95;;
74328;SDS011;62745;51.060;13.786;2023-10-19T09:45:21;10.98;;;6.57;;
74328;SDS011;62745;51.060;13.786;2023-10-19T09:47:53;10.25;;;6.63;;
74328;SDS011;62745;51.060;13.786;2023-10-19T09:50:19;11.38;;;6.80;;
74328;SDS011;62745;51.060;13.786;2023-10-19T09:52:45;10.88;;;6.50;;
74328;SDS011;62745;51.060;13.786;2023-10-19T09:55:17;11.73;;;6.75;;
74328;SDS011;62745;51.060;13.786;2023-10-19T09:58:06;10.30;;;6.80;;
74328;SDS011;62745;51.060;13.786;2023-10-19T10:00:34;11.85;;;7.22;;
74328;SDS011;62745;51.060;13.786;2023-10-19T10:03:00;11.20;;;7.00;;
74328;SDS011;62745;51.060;13.786;2023-10-19T10:10:45;11.20;;;6.75;;
74328;SDS011;62745;51.060;13.786;2023-10-19T10:15:49;14.90;;;7.35;;
74328;SDS011;62745;51.060;13.786;2023-10-19T10:18:17;13.15;;;7.53;;
74328;SDS011;62745;51.060;13.786;2023-10-19T10:20:43;12.80;;;7.83;;
74328;SDS011;62745;51.060;13.786;2023-10-19T10:23:18;13.57;;;7.63;;
74328;SDS011;62745;51.060;13.786;2023-10-19T10:25:46;12.35;;;7.65;;
74328;SDS011;62745;51.060;13.786;2023-10-19T10:28:18;13.35;;;8.38;;
74328;SDS011;62745;51.060;13.786;2023-10-19T10:36:27;12.50;;;7.55;;
74328;SDS011;62745;51.060;13.786;2023-10-19T10:39:29;13.07;;;7.75;;
74328;SDS011;62745;51.060;13.786;2023-10-19T10:41:58;14.95;;;7.70;;
74328;SDS011;62745;51.060;13.786;2023-10-19T10:44:40;13.38;;;8.02;;
74328;SDS011;62745;51.060;13.786;2023-10-19T10:47:08;11.85;;;7.60;;
74328;SDS011;62745;51.060;13.786;2023-10-19T10:49:53;12.98;;;8.32;;
74328;SDS011;62745;51.060;13.786;2023-10-19T10:52:26;14.95;;;8.35;;
74328;SDS011;62745;51.060;13.786;2023-10-19T10:54:57;13.48;;;8.32;;
74328;SDS011;62745;51.060;13.786;2023-10-19T10:57:23;14.55;;;8.13;;
74328;SDS011;62745;51.060;13.786;2023-10-19T11:02:40;15.57;;;8.95;;
74328;SDS011;62745;51.060;13.786;2023-10-19T11:05:11;15.95;;;8.90;;
74328;SDS011;62745;51.060;13.786;2023-10-19T11:07:38;14.77;;;8.90;;
74328;SDS011;62745;51.060;13.786;2023-10-19T11:10:04;17.00;;;9.10;;
74328;SDS011;62745;51.060;13.786;2023-10-19T11:12:30;16.33;;;9.52;;
74328;SDS011;62745;51.060;13.786;2023-10-19T11:14:57;16.15;;;9.98;;
74328;SDS011;62745;51.060;13.786;2023-10-19T11:17:28;15.27;;;8.98;;
74328;SDS011;62745;51.060;13.786;2023-10-19T11:19:57;16.02;;;9.88;;
74328;SDS011;62745;51.060;13.786;2023-10-19T11:22:23;14.30;;;9.05;;
74328;SDS011;62745;51.060;13.786;2023-10-19T11:24:50;14.45;;;9.32;;
74328;SDS011;62745;51.060;13.786;2023-10-19T11:27:26;15.35;;;9.48;;
74328;SDS011;62745;51.060;13.786;2023-10-19T11:29:55;19.13;;;9.80;;
74328;SDS011;62745;51.060;13.786;2023-10-19T11:32:22;15.18;;;9.75;;
74328;SDS011;62745;51.060;13.786;2023-10-19T11:34:50;18.73;;;9.38;;
74328;SDS011;62745;51.060;13.786;2023-10-19T11:37:15;15.27;;;8.98;;
74328;SDS011;62745;51.060;13.786;2023-10-19T11:39:41;18.50;;;9.45;;
74328;SDS011;62745;51.060;13.786;2023-10-19T11:42:07;16.90;;;10.15;;
74328;SDS011;62745;51.060;13.786;2023-10-19T11:44:32;15.43;;;9.95;;
74328;SDS011;62745;51.060;13.786;2023-10-19T11:46:58;17.52;;;9.52;;
74328;SDS011;62745;51.060;13.786;2023-10-19T11:49:23;18.17;;;10.25;;
74328;SDS011;62745;51.060;13.786;2023-10-19T11:51:48;16.83;;;9.52;;
74328;SDS011;62745;51.060;13.786;2023-10-19T11:54:13;17.30;;;9.77;;
74328;SDS011;62745;51.060;13.786;2023-10-19T11:56:39;15.15;;;9.30;;
74328;SDS011;62745;51.060;13.786;2023-10-19T11:59:04;15.88;;;9.27;;
74328;SDS011;62745;51.060;13.786;2023-10-19T12:01:29;16.88;;;9.85;;
74328;SDS011;62745;51.060;13.786;2023-10-19T12:03:55;16.97;;;10.00;;
74328;SDS011;62745;51.060;13.786;2023-10-19T12:06:20;15.45;;;9.50;;
74328;SDS011;62745;51.060;13.786;2023-10-19T12:08:48;13.48;;;8.95;;
74328;SDS011;62745;51.060;13.786;2023-10-19T12:11:14;14.95;;;9.60;;
74328;SDS011;62745;51.060;13.786;2023-10-19T12:13:44;16.48;;;9.88;;
74328;SDS011;62745;51.060;13.786;2023-10-19T12:16:10;15.18;;;9.55;;
74328;SDS011;62745;51.060;13.786;2023-10-19T12:18:38;15.13;;;9.57;;
74328;SDS011;62745;51.060;13.786;2023-10-19T12:21:04;16.48;;;10.07;;
74328;SDS011;62745;51.060;13.786;2023-10-19T12:23:32;16.92;;;9.88;;
74328;SDS011;62745;51.060;13.786;2023-10-19T12:25:58;16.65;;;9.57;;
74328;SDS011;62745;51.060;13.786;2023-10-19T12:28:23;15.65;;;9.75;;
74328;SDS011;62745;51.060;13.786;2023-10-19T12:30:49;17.80;;;9.55;;
74328;SDS011;62745;51.060;13.786;2023-10-19T12:33:15;16.27;;;10.05;;
74328;SDS011;62745;51.060;13.786;2023-10-19T12:35:41;16.38;;;10.32;;
74328;SDS011;62745;51.060;13.786;2023-10-19T12:38:10;16.83;;;10.05;;
74328;SDS011;62745;51.060;13.786;2023-10-19T12:40:41;15.15;;;10.13;;
74328;SDS011;62745;51.060;13.786;2023-10-19T12:43:08;16.10;;;9.88;;
74328;SDS011;62745;51.060;13.786;2023-10-19T12:45:35;15.40;;;9.90;;
74328;SDS011;62745;51.060;13.786;2023-10-19T12:48:02;16.02;;;10.25;;
74328;SDS011;62745;51.060;13.786;2023-10-19T12:50:29;16.08;;;9.98;;
74328;SDS011;62745;51.060;13.786;2023-10-19T12:52:55;18.42;;;11.00;;
74328;SDS011;62745;51.060;13.786;2023-10-19T12:55:21;16.92;;;10.05;;
74328;SDS011;62745;51.060;13.786;2023-10-19T12:57:47;15.60;;;10.23;;
74328;SDS011;62745;51.060;13.786;2023-10-19T13:00:12;16.00;;;9.90;;
74328;SDS011;62745;51.060;13.786;2023-10-19T13:03:01;19.38;;;10.52;;
74328;SDS011;62745;51.060;13.786;2023-10-19T13:05:36;17.60;;;10.77;;
74328;SDS011;62745;51.060;13.786;2023-10-19T13:08:05;19.73;;;11.75;;
74328;SDS011;62745;51.060;13.786;2023-10-19T13:10:39;18.33;;;11.18;;
74328;SDS011;62745;51.060;13.786;2023-10-19T13:13:07;18.27;;;10.68;;
74328;SDS011;62745;51.060;13.786;2023-10-19T13:15:36;19.17;;;10.57;;
74328;SDS011;62745;51.060;13.786;2023-10-19T13:18:03;15.65;;;10.48;;
74328;SDS011;62745;51.060;13.786;2023-10-19T13:20:31;15.30;;;9.20;;
74328;SDS011;62745;51.060;13.786;2023-10-19T13:23:00;17.10;;;10.60;;
74328;SDS011;62745;51.060;13.786;2023-10-19T13:25:27;16.80;;;9.45;;
74328;SDS011;62745;51.060;13.786;2023-10-19T13:28:31;14.95;;;9.38;;
74328;SDS011;62745;51.060;13.786;2023-10-19T13:30:57;17.10;;;10.95;;
74328;SDS011;62745;51.060;13.786;2023-10-19T13:33:22;16.20;;;10.20;;
74328;SDS011;62745;51.060;13.786;2023-10-19T13:35:49;15.57;;;10.07;;
74328;SDS011;62745;51.060;13.786;2023-10-19T13:38:16;14.25;;;9.05;;
74328;SDS011;62745;51.060;13.786;2023-10-19T13:40:44;17.10;;;11.13;;
74328;SDS011;62745;51.060;13.786;2023-10-19T13:43:11;15.60;;;9.43;;
74328;SDS011;62745;51.060;13.786;2023-10-19T13:45:41;15.02;;;10.02;;
74328;SDS011;62745;51.060;13.786;2023-10-19T13:48:11;15.45;;;10.10;;
74328;SDS011;62745;51.060;13.786;2023-10-19T13:50:40;15.63;;;9.63;;
74328;SDS011;62745;51.060;13.786;2023-10-19T13:53:07;17.20;;;9.95;;
74328;SDS011;62745;51.060;13.786;2023-10-19T13:55:34;13.38;;;9.20;;
74328;SDS011;62745;51.060;13.786;2023-10-19T13:58:01;15.48;;;9.43;;
74328;SDS011;62745;51.060;13.786;2023-10-19T14:00:26;17.10;;;9.83;;
74328;SDS011;62745;51.060;13.786;2023-10-19T14:03:04;17.02;;;9.80;;
74328;SDS011;62745;51.060;13.786;2023-10-19T14:05:30;14.80;;;10.00;;
74328;SDS011;62745;51.060;13.786;2023-10-19T14:08:01;15.65;;;10.27;;
74328;SDS011;62745;51.060;13.786;2023-10-19T14:10:28;17.92;;;10.02;;
74328;SDS011;62745;51.060;13.786;2023-10-19T14:12:54;18.08;;;10.80;;
74328;SDS011;62745;51.060;13.786;2023-10-19T14:15:19;17.00;;;10.73;;
74328;SDS011;62745;51.060;13.786;2023-10-19T14:17:45;16.98;;;9.85;;
74328;SDS011;62745;51.060;13.786;2023-10-19T14:20:12;17.55;;;10.27;;
74328;SDS011;62745;51.060;13.786;2023-10-19T14:22:45;16.77;;;11.23;;
74328;SDS011;62745;51.060;13.786;2023-10-19T14:25:13;15.65;;;10.20;;
74328;SDS011;62745;51.060;13.786;2023-10-19T14:27:43;17.75;;;11.15;;
74328;SDS011;62745;51.060;13.786;2023-10-19T14:30:11;15.68;;;10.05;;
74328;SDS011;62745;51.060;13.786;2023-10-19T14:32:39;19.88;;;11.32;;
74328;SDS011;62745;51.060;13.786;2023-10-19T14:35:07;18.67;;;11.30;;
74328;SDS011;62745;51.060;13.786;2023-10-19T14:37:39;17.38;;;10.90;;
74328;SDS011;62745;51.060;13.786;2023-10-19T14:40:09;16.92;;;10.75;;
74328;SDS011;62745;51.060;13.786;2023-10-19T14:42:36;17.55;;;11.40;;
74328;SDS011;62745;51.060;13.786;2023-10-19T14:45:12;18.35;;;11.50;;
74328;SDS011;62745;51.060;13.786;2023-10-19T14:47:46;17.25;;;10.73;;
74328;SDS011;62745;51.060;13.786;2023-10-19T14:50:11;19.50;;;12.07;;
74328;SDS011;62745;51.060;13.786;2023-10-19T14:52:40;17.10;;;11.07;;
74328;SDS011;62745;51.060;13.786;2023-10-19T14:55:07;17.63;;;11.13;;
74328;SDS011;62745;51.060;13.786;2023-10-19T14:57:34;17.13;;;10.90;;